Time;durP1;ratioP1;P1;durP2;ratioP2;P2;SDS_P1;SDS_P2;PMS_P1;PMS_P2;Temp;Humidity;BMP_temperature;BMP_pressure;BME280_temperature;BME280_humidity;BME280_pressure;Samples;Min_cycle;Max_cycle;Signal;HPM_P1;HPM_P2
2022/05/05 04:01:56;;;;;;;145.63;50.42;;;9.80;99.90;;;;;;5294799;23;20046;-73
2022/05/05 04:04:22;;;;;;;137.38;49.17;;;9.80;99.90;;;;;;4995689;28;20047;-73
2022/05/05 04:06:47;;;;;;;143.27;50.08;;;9.90;99.90;;;;;;4995843;28;20082;-73
2022/05/05 04:09:13;;;;;;;157.43;52.90;;;9.90;99.90;;;;;;4996284;28;20034;-75
2022/05/05 04:11:39;;;;;;;182.13;52.83;;;9.90;99.90;;;;;;4995993;28;20105;-75
2022/05/05 04:14:04;;;;;;;141.45;48.50;;;9.90;99.90;;;;;;4996637;28;20078;-76
2022/05/05 04:16:33;;;;;;;142.25;45.70;;;9.90;99.90;;;;;;4996377;28;20500;-76
2022/05/05 04:19:01;;;;;;;164.45;46.42;;;9.80;99.90;;;;;;4995910;28;20031;-76
2022/05/05 04:21:26;;;;;;;148.30;48.92;;;9.80;99.90;;;;;;4995901;28;20034;-76
2022/05/05 04:23:53;;;;;;;137.63;50.30;;;9.90;99.90;;;;;;4994248;28;20039;-76
2022/05/05 04:26:19;;;;;;;126.13;48.40;;;10.00;99.90;;;;;;4996117;28;20053;-77
2022/05/05 04:28:48;;;;;;;119.38;45.50;;;10.10;99.90;;;;;;4994714;28;20034;-75
2022/05/05 04:31:16;;;;;;;116.97;44.13;;;10.20;99.90;;;;;;4995432;28;20471;-75
2022/05/05 04:33:42;;;;;;;91.85;41.13;;;10.30;99.90;;;;;;4994118;28;20512;-75
2022/05/05 04:36:09;;;;;;;97.05;40.40;;;10.30;99.90;;;;;;4995684;28;20081;-75
2022/05/05 04:38:35;;;;;;;97.68;41.80;;;10.40;99.90;;;;;;4995766;28;20481;-75
2022/05/05 04:41:01;;;;;;;100.20;42.05;;;10.50;99.90;;;;;;4995220;28;20042;-75
2022/05/05 04:43:26;;;;;;;99.63;42.08;;;10.60;99.90;;;;;;4994066;28;20038;-76
2022/05/05 04:45:52;;;;;;;122.95;46.92;;;10.70;99.90;;;;;;4995755;28;20511;-76
2022/05/05 04:48:18;;;;;;;128.70;49.70;;;10.80;99.90;;;;;;4995591;28;20030;-76
2022/05/05 04:50:44;;;;;;;116.40;48.80;;;10.90;99.90;;;;;;4993879;28;20436;-77
2022/05/05 04:53:09;;;;;;;122.80;50.03;;;11.00;99.90;;;;;;4995384;28;20617;-76
2022/05/05 04:55:35;;;;;;;130.32;51.38;;;11.00;99.90;;;;;;4995786;28;20035;-76
2022/05/05 04:58:00;;;;;;;115.00;47.92;;;11.10;99.90;;;;;;4993974;28;20173;-77
2022/05/05 05:00:26;;;;;;;113.47;47.13;;;11.20;99.90;;;;;;4994779;28;20129;-76
2022/05/05 05:02:51;;;;;;;134.25;49.38;;;11.20;99.90;;;;;;5008648;28;20030;-76
2022/05/05 05:05:17;;;;;;;110.38;46.22;;;11.20;99.90;;;;;;5015145;28;20037;-77
2022/05/05 05:07:43;;;;;;;120.20;47.35;;;11.30;99.90;;;;;;5015962;28;20516;-75
2022/05/05 05:10:09;;;;;;;117.43;48.03;;;11.20;99.90;;;;;;5015528;28;20037;-75
2022/05/05 05:12:35;;;;;;;110.57;47.00;;;11.30;99.90;;;;;;4984178;28;20046;-76
2022/05/05 05:15:00;;;;;;;119.50;49.72;;;11.30;99.90;;;;;;4975461;28;20516;-75
2022/05/05 05:17:26;;;;;;;107.30;47.90;;;11.40;99.90;;;;;;4986644;28;20432;-75
2022/05/05 05:19:52;;;;;;;103.55;46.15;;;11.40;99.90;;;;;;4986596;28;20038;-74
2022/05/05 05:22:18;;;;;;;100.57;47.08;;;11.50;99.90;;;;;;4986126;28;20047;-75
2022/05/05 05:24:44;;;;;;;134.15;51.78;;;11.50;99.90;;;;;;4979555;28;20485;-74
2022/05/05 05:27:09;;;;;;;102.40;47.75;;;11.60;99.90;;;;;;4974265;28;20050;-75
2022/05/05 05:29:35;;;;;;;91.30;44.90;;;11.70;99.90;;;;;;4976074;28;20031;-75
2022/05/05 05:32:01;;;;;;;71.88;39.90;;;11.70;99.90;;;;;;4976965;28;20054;-75
2022/05/05 05:34:26;;;;;;;73.82;40.13;;;11.70;99.90;;;;;;4982071;28;20380;-75
2022/05/05 05:36:52;;;;;;;86.28;41.40;;;11.70;99.90;;;;;;4983250;28;20035;-77
2022/05/05 05:39:18;;;;;;;85.50;41.90;;;11.80;99.90;;;;;;5001121;28;20034;-75
2022/05/05 05:41:44;;;;;;;80.82;39.72;;;11.90;99.90;;;;;;4993022;28;20131;-76
2022/05/05 05:44:11;;;;;;;65.53;37.58;;;12.00;99.90;;;;;;4985937;28;20457;-76
2022/05/05 05:46:37;;;;;;;66.90;37.85;;;12.10;99.90;;;;;;4975289;28;20043;-73
2022/05/05 05:49:02;;;;;;;66.47;38.53;;;12.20;99.90;;;;;;4975901;28;20035;-76
2022/05/05 05:51:28;;;;;;;66.75;38.75;;;12.20;99.90;;;;;;4975336;28;20107;-75
2022/05/05 05:53:54;;;;;;;67.18;37.42;;;12.30;99.90;;;;;;4989709;28;20433;-75
2022/05/05 05:56:19;;;;;;;52.92;34.65;;;12.30;99.90;;;;;;4978127;28;20035;-76
2022/05/05 05:58:45;;;;;;;66.53;38.35;;;12.30;99.90;;;;;;4979039;28;20039;-76
2022/05/05 06:01:11;;;;;;;58.85;36.13;;;12.30;99.90;;;;;;4978382;28;20102;-77
2022/05/05 06:03:56;;;;;;;71.13;37.92;;;12.40;99.90;;;;;;4980837;28;20042;-77
2022/05/05 06:06:25;;;;;;;55.92;35.80;;;12.40;99.90;;;;;;4979167;28;20031;-77
2022/05/05 06:08:51;;;;;;;66.90;37.50;;;12.40;99.90;;;;;;4978759;28;20031;-76
2022/05/05 06:11:18;;;;;;;56.15;35.22;;;12.50;99.90;;;;;;4981124;28;20042;-76
2022/05/05 06:13:44;;;;;;;53.22;35.50;;;12.50;99.90;;;;;;4996993;28;20523;-76
2022/05/05 06:16:10;;;;;;;49.65;34.00;;;12.60;99.90;;;;;;4991503;28;20053;-76
2022/05/05 06:18:39;;;;;;;54.83;35.63;;;12.60;99.90;;;;;;4979787;28;20035;-76
2022/05/05 06:21:05;;;;;;;61.20;36.80;;;12.60;99.90;;;;;;4985335;28;20047;-75
2022/05/05 06:23:31;;;;;;;52.15;34.90;;;12.70;99.90;;;;;;4997897;28;20117;-75
2022/05/05 06:25:56;;;;;;;52.58;33.92;;;12.90;99.90;;;;;;4995494;28;20057;-76
2022/05/05 06:28:22;;;;;;;47.88;31.45;;;13.00;99.90;;;;;;4991190;28;20043;-75
2022/05/05 06:30:50;;;;;;;45.45;31.08;;;13.20;99.90;;;;;;4990919;28;20050;-75
2022/05/05 06:33:16;;;;;;;40.35;30.67;;;13.20;99.90;;;;;;4980879;28;20783;-74
2022/05/05 06:35:41;;;;;;;39.53;29.80;;;13.20;99.90;;;;;;4979155;28;20031;-73
2022/05/05 06:38:07;;;;;;;36.22;28.00;;;13.20;99.90;;;;;;4991385;28;20527;-75
2022/05/05 06:40:34;;;;;;;33.60;26.05;;;13.20;99.90;;;;;;4982330;28;20410;-74
2022/05/05 06:43:00;;;;;;;33.80;26.63;;;13.40;99.90;;;;;;4982129;28;20028;-76
2022/05/05 06:45:25;;;;;;;30.85;25.27;;;13.40;99.90;;;;;;4985137;28;20043;-75
2022/05/05 06:47:52;;;;;;;32.92;25.90;;;13.40;99.90;;;;;;4979169;28;20386;-75
2022/05/05 06:50:21;;;;;;;28.33;23.50;;;13.50;99.90;;;;;;4980050;28;20039;-75
2022/05/05 06:52:50;;;;;;;29.42;23.92;;;13.50;99.90;;;;;;4978631;28;20039;-74
2022/05/05 06:55:15;;;;;;;27.00;22.83;;;13.60;99.90;;;;;;4976119;28;20031;-74
2022/05/05 06:57:43;;;;;;;30.65;23.73;;;13.60;99.90;;;;;;4979415;28;20035;-74
2022/05/05 07:00:09;;;;;;;28.60;23.73;;;13.70;99.90;;;;;;4985166;28;20039;-73
2022/05/05 07:02:35;;;;;;;30.25;24.17;;;13.60;99.90;;;;;;4996723;28;20480;-74
2022/05/05 07:07:47;;;;;;;27.95;23.30;;;13.60;99.90;;;;;;4996776;28;20088;-74
2022/05/05 07:12:57;;;;;;;29.35;23.80;;;13.80;99.90;;;;;;4993525;28;20488;-74
2022/05/05 07:15:23;;;;;;;29.30;22.70;;;13.90;99.90;;;;;;4978642;28;20126;-74
2022/05/05 07:17:49;;;;;;;26.45;22.52;;;14.00;99.90;;;;;;4990789;28;20492;-74
2022/05/05 07:20:14;;;;;;;26.73;23.23;;;14.20;99.90;;;;;;4991902;28;20437;-74
2022/05/05 07:22:40;;;;;;;27.48;23.50;;;14.20;99.90;;;;;;4977877;28;20035;-74
2022/05/05 07:25:07;;;;;;;28.55;23.02;;;14.40;99.90;;;;;;4978628;28;20054;-74
2022/05/05 07:27:33;;;;;;;23.52;21.05;;;14.40;99.90;;;;;;4977895;28;20067;-74
2022/05/05 07:29:58;;;;;;;26.30;23.00;;;14.50;99.90;;;;;;4979646;28;20035;-74
2022/05/05 07:32:24;;;;;;;26.13;22.33;;;14.50;99.90;;;;;;4995696;28;20039;-75
2022/05/05 07:34:49;;;;;;;27.60;22.73;;;14.50;99.90;;;;;;4985882;28;20041;-74
2022/05/05 07:37:15;;;;;;;27.65;24.60;;;14.60;99.90;;;;;;4981430;28;20465;-74
2022/05/05 07:39:41;;;;;;;27.23;23.10;;;14.50;99.90;;;;;;4992042;28;20039;-74
2022/05/05 07:42:08;;;;;;;30.17;22.73;;;14.60;99.90;;;;;;4996756;28;20122;-74
2022/05/05 07:44:33;;;;;;;29.10;23.27;;;14.60;99.90;;;;;;4993667;28;20049;-75
2022/05/05 07:46:59;;;;;;;28.15;21.60;;;14.70;99.90;;;;;;4996703;28;20047;-75
2022/05/05 07:49:25;;;;;;;27.15;23.23;;;14.40;99.90;;;;;;4996029;28;20043;-74
2022/05/05 07:51:51;;;;;;;30.08;25.77;;;14.50;99.90;;;;;;4996375;28;20035;-74
2022/05/05 07:57:03;;;;;;;29.10;25.15;;;14.50;99.90;;;;;;4997162;28;20035;-75
2022/05/05 07:59:29;;;;;;;25.77;22.92;;;14.50;99.90;;;;;;4981320;28;20491;-75
2022/05/05 08:01:54;;;;;;;30.73;24.27;;;14.70;99.90;;;;;;4991506;28;20114;-75
2022/05/05 08:04:20;;;;;;;27.13;23.13;;;14.50;99.90;;;;;;4986865;28;20039;-74
2022/05/05 08:06:45;;;;;;;30.85;27.08;;;14.50;99.90;;;;;;4989884;28;20444;-74
2022/05/05 08:09:11;;;;;;;30.23;24.45;;;14.50;99.90;;;;;;4996348;28;20428;-74
2022/05/05 08:11:37;;;;;;;29.77;24.17;;;14.60;99.90;;;;;;4995450;28;20041;-74
2022/05/05 08:14:04;;;;;;;29.75;26.35;;;14.30;99.90;;;;;;4996879;28;20027;-74
2022/05/05 08:16:30;;;;;;;29.58;26.00;;;14.20;99.90;;;;;;4984341;28;20105;-74
2022/05/05 08:18:55;;;;;;;29.77;25.02;;;14.20;99.90;;;;;;4994136;28;20110;-75
2022/05/05 08:21:21;;;;;;;32.15;26.45;;;14.10;99.90;;;;;;4994877;28;20070;-74
2022/05/05 08:23:47;;;;;;;31.42;26.77;;;14.20;99.90;;;;;;4995827;28;20034;-75
2022/05/05 08:28:56;;;;;;;29.70;25.95;;;14.50;99.90;;;;;;4995958;28;20035;-74
2022/05/05 08:31:22;;;;;;;37.15;30.33;;;14.50;99.90;;;;;;4995300;28;20481;-75
2022/05/05 08:33:49;;;;;;;32.88;28.58;;;14.50;99.90;;;;;;4979325;28;20077;-74
2022/05/05 08:36:14;;;;;;;33.10;28.70;;;14.60;99.90;;;;;;4987400;28;20122;-75
2022/05/05 08:38:40;;;;;;;38.38;30.13;;;14.50;99.90;;;;;;4985994;28;20427;-75
2022/05/05 08:41:11;;;;;;;36.50;28.15;;;14.50;99.90;;;;;;4975443;28;20035;-75
2022/05/05 08:43:36;;;;;;;36.80;29.30;;;14.80;99.90;;;;;;4978458;28;20032;-77
2022/05/05 08:46:03;;;;;;;32.55;28.92;;;14.90;99.90;;;;;;4985243;28;20047;-77
2022/05/05 08:48:31;;;;;;;34.22;28.40;;;14.70;99.90;;;;;;4993307;28;20035;-77
2022/05/05 08:51:00;;;;;;;34.53;27.67;;;14.60;99.90;;;;;;4995898;28;20121;-76
2022/05/05 08:53:32;;;;;;;37.67;30.52;;;14.40;99.90;;;;;;4979191;28;20031;-75
2022/05/05 08:55:58;;;;;;;33.35;27.98;;;14.50;99.90;;;;;;4978263;28;20097;-76
2022/05/05 08:58:24;;;;;;;37.40;30.75;;;14.60;99.90;;;;;;4995829;28;20117;-76
2022/05/05 09:00:53;;;;;;;35.25;29.38;;;14.60;99.90;;;;;;4995693;28;20054;-78
2022/05/05 09:03:19;;;;;;;37.40;30.70;;;14.70;99.90;;;;;;4998394;28;20105;-79
2022/05/05 09:05:49;;;;;;;35.15;29.45;;;14.80;99.90;;;;;;4999633;28;20039;-80
2022/05/05 09:08:26;;;;;;;33.10;27.25;;;15.10;99.90;;;;;;4977347;28;20481;-80
2022/05/05 09:10:54;;;;;;;35.03;28.38;;;15.20;99.90;;;;;;4993141;28;20038;-81
2022/05/05 09:13:27;;;;;;;32.95;29.15;;;15.20;99.90;;;;;;4996020;28;20046;-79
2022/05/05 09:15:53;;;;;;;32.85;26.35;;;15.40;99.90;;;;;;4997653;28;20050;-77
2022/05/05 09:18:28;;;;;;;37.15;30.35;;;15.50;99.90;;;;;;4997451;28;20019;-78
2022/05/05 09:20:55;;;;;;;36.70;30.00;;;15.40;99.90;;;;;;4999406;28;20417;-79
2022/05/05 09:26:25;;;;;;;34.03;29.80;;;15.70;99.90;;;;;;4977192;28;20097;-78
2022/05/05 09:28:51;;;;;;;33.70;28.77;;;15.90;99.90;;;;;;4976805;28;20027;-77
2022/05/05 09:31:17;;;;;;;35.72;27.83;;;16.00;99.90;;;;;;4994490;28;20474;-78
2022/05/05 09:33:44;;;;;;;34.45;28.92;;;16.00;99.90;;;;;;4981570;28;20073;-78
2022/05/05 09:36:15;;;;;;;31.48;26.90;;;16.10;99.90;;;;;;4999129;28;20042;-81
2022/05/05 09:39:04;;;;;;;31.15;27.33;;;16.40;99.90;;;;;;4997649;28;20472;-82
2022/05/05 09:41:34;;;;;;;32.63;28.98;;;16.60;99.90;;;;;;4999982;28;20039;-81
2022/05/05 09:44:15;;;;;;;31.42;26.98;;;16.50;99.90;;;;;;5002614;28;20062;-82
2022/05/05 09:46:43;;;;;;;31.90;27.42;;;16.50;99.90;;;;;;4999626;28;20066;-82
2022/05/05 09:49:14;;;;;;;31.65;27.70;;;16.30;99.90;;;;;;4999080;28;20035;-81
2022/05/05 09:57:41;;;;;;;37.17;30.52;;;16.50;99.90;;;;;;4999105;28;20493;-79
2022/05/05 10:00:23;;;;;;;37.08;31.55;;;16.70;99.90;;;;;;4999111;28;20035;-79
2022/05/05 10:05:42;;;;;;;38.97;32.70;;;16.40;99.90;;;;;;4997294;28;20130;-80
2022/05/05 10:08:18;;;;;;;38.50;32.35;;;16.20;99.90;;;;;;4976988;28;20505;-81
2022/05/05 10:10:44;;;;;;;38.63;33.55;;;16.20;99.90;;;;;;4981619;28;20047;-80
2022/05/05 10:13:12;;;;;;;40.72;32.83;;;16.10;99.90;;;;;;4982341;28;20046;-80
2022/05/05 10:15:38;;;;;;;42.90;34.40;;;16.10;99.90;;;;;;4999123;28;20114;-80
2022/05/05 10:18:04;;;;;;;43.97;35.72;;;16.20;99.90;;;;;;4997861;28;20031;-77
2022/05/05 10:20:34;;;;;;;36.00;31.92;;;16.50;99.90;;;;;;4995427;28;20492;-79
2022/05/05 10:23:19;;;;;;;36.22;31.27;;;16.60;99.90;;;;;;4979612;28;20031;-80
2022/05/05 10:25:52;;;;;;;41.50;33.70;;;16.50;99.90;;;;;;4978757;28;20031;-81
2022/05/05 10:28:40;;;;;;;43.03;34.53;;;16.50;99.90;;;;;;4980653;28;20035;-80
2022/05/05 10:31:31;;;;;;;38.28;32.85;;;16.60;99.90;;;;;;4979796;28;20118;-80
2022/05/05 10:34:01;;;;;;;39.83;34.95;;;16.60;99.90;;;;;;4978575;28;20110;-81
2022/05/05 10:36:30;;;;;;;39.40;35.05;;;16.60;99.90;;;;;;4978709;28;20520;-80
2022/05/05 10:38:56;;;;;;;43.75;34.58;;;16.80;99.90;;;;;;4981224;28;20067;-80
2022/05/05 10:41:41;;;;;;;38.00;31.85;;;17.00;99.90;;;;;;4996530;28;20502;-81
2022/05/05 10:44:16;;;;;;;41.83;34.22;;;17.30;99.90;;;;;;4982876;28;20118;-82
2022/05/05 10:47:04;;;;;;;38.63;33.45;;;17.60;99.90;;;;;;4986040;28;20043;-80
2022/05/05 10:49:52;;;;;;;40.55;32.30;;;17.60;99.90;;;;;;5003458;28;20038;-80
2022/05/05 10:52:21;;;;;;;36.70;31.23;;;18.10;99.90;;;;;;5000988;28;20480;-81
2022/05/05 10:54:48;;;;;;;36.55;32.10;;;18.30;99.90;;;;;;4995997;28;20460;-79
2022/05/05 10:57:26;;;;;;;35.58;31.60;;;18.30;99.90;;;;;;5003790;28;20030;-80
2022/05/05 11:00:13;;;;;;;36.40;31.92;;;18.00;99.90;;;;;;4998341;28;20062;-80
2022/05/05 11:02:58;;;;;;;34.95;31.25;;;18.30;99.90;;;;;;4997647;28;20097;-80
2022/05/05 11:05:36;;;;;;;36.58;32.45;;;18.20;99.90;;;;;;4994033;28;20041;-80
2022/05/05 11:08:13;;;;;;;33.60;29.95;;;18.20;99.90;;;;;;4998860;28;20058;-80
2022/05/05 11:13:46;;;;;;;35.08;31.27;;;18.40;99.90;;;;;;5009856;28;20042;-78
2022/05/05 11:22:28;;;;;;;35.40;30.58;;;17.90;99.90;;;;;;4979601;28;20130;-80
2022/05/05 11:25:01;;;;;;;36.38;32.28;;;18.00;99.90;;;;;;5006184;28;20035;-78
2022/05/05 11:27:27;;;;;;;34.40;30.83;;;17.80;99.90;;;;;;5006227;28;20480;-78
2022/05/05 11:29:59;;;;;;;37.15;32.08;;;18.10;99.90;;;;;;4994308;28;20039;-80
2022/05/05 11:32:30;;;;;;;35.13;29.23;;;18.30;99.90;;;;;;4991464;28;20039;-80
2022/05/05 11:34:56;;;;;;;36.67;32.58;;;18.60;99.90;;;;;;5014812;28;20050;-80
2022/05/05 11:37:26;;;;;;;36.88;32.13;;;19.10;99.90;;;;;;4991602;28;20096;-79
2022/05/05 11:39:51;;;;;;;36.05;31.73;;;19.20;99.90;;;;;;4997996;28;20038;-79
2022/05/05 11:42:18;;;;;;;41.13;31.58;;;19.50;99.90;;;;;;4991443;28;20358;-80
2022/05/05 11:44:45;;;;;;;34.38;30.13;;;19.90;99.90;;;;;;5012042;28;20039;-80
2022/05/05 11:47:20;;;;;;;35.63;31.50;;;19.90;99.90;;;;;;5003116;28;20520;-80
2022/05/05 11:49:47;;;;;;;33.88;30.02;;;19.60;99.90;;;;;;4995121;28;20031;-80
2022/05/05 11:52:21;;;;;;;36.97;30.70;;;20.10;99.90;;;;;;5005310;28;20049;-80
2022/05/05 11:54:48;;;;;;;32.90;29.30;;;19.90;99.90;;;;;;4997913;28;20097;-79
2022/05/05 11:57:39;;;;;;;33.47;28.33;;;20.20;99.90;;;;;;5003431;28;20049;-80
2022/05/05 12:02:54;;;;;;;31.63;28.20;;;20.50;99.90;;;;;;4991425;28;20039;-80
2022/05/05 12:05:21;;;;;;;31.95;28.45;;;20.60;99.90;;;;;;4994236;28;20022;-80
2022/05/05 12:07:47;;;;;;;33.22;27.77;;;20.50;99.90;;;;;;5013814;28;20125;-80
2022/05/05 12:10:18;;;;;;;35.00;27.23;;;20.40;99.90;;;;;;4993484;28;20027;-79
2022/05/05 12:12:46;;;;;;;28.35;25.48;;;20.70;99.90;;;;;;4989938;28;20035;-82
2022/05/05 12:15:14;;;;;;;28.95;25.95;;;21.20;99.90;;;;;;4998520;28;20041;-80
2022/05/05 12:17:45;;;;;;;27.75;24.77;;;21.20;99.90;;;;;;4987498;28;20027;-81
2022/05/05 12:20:13;;;;;;;27.40;24.55;;;21.60;99.90;;;;;;4992076;28;20030;-82
2022/05/05 12:22:40;;;;;;;28.48;24.08;;;21.60;99.40;;;;;;4982058;28;20050;-80
2022/05/05 12:25:14;;;;;;;27.35;24.42;;;21.60;98.50;;;;;;4997883;28;20122;-83
2022/05/05 12:27:47;;;;;;;28.92;24.42;;;21.50;97.70;;;;;;5002701;28;20019;-80
2022/05/05 12:30:29;;;;;;;29.15;24.30;;;21.60;97.80;;;;;;4988976;28;20787;-81
2022/05/05 12:32:55;;;;;;;27.85;24.85;;;22.10;95.10;;;;;;5003272;28;20101;-83
2022/05/05 12:35:37;;;;;;;26.58;23.88;;;22.00;97.00;;;;;;5003202;28;20062;-80
2022/05/05 12:38:08;;;;;;;28.00;24.98;;;22.20;95.70;;;;;;4983804;28;20095;-80
2022/05/05 12:40:35;;;;;;;28.45;25.45;;;22.10;96.00;;;;;;4987401;28;20034;-81
2022/05/05 12:43:11;;;;;;;27.95;24.67;;;22.20;95.00;;;;;;5001343;28;20035;-79
2022/05/05 12:45:37;;;;;;;30.40;24.83;;;21.80;97.20;;;;;;4987315;28;20046;-80
2022/05/05 12:48:10;;;;;;;27.10;24.23;;;21.70;97.30;;;;;;4984477;28;20050;-80
2022/05/05 12:50:53;;;;;;;26.33;23.52;;;22.00;98.50;;;;;;4998708;28;20086;-79
2022/05/05 13:01:54;;;;;;;32.08;23.80;;;22.10;95.30;;;;;;4999033;28;20039;-79
2022/05/05 13:04:20;;;;;;;27.65;24.70;;;21.60;93.60;;;;;;4995497;28;20082;-78
2022/05/05 13:06:51;;;;;;;27.05;23.48;;;21.50;94.10;;;;;;4996906;28;20138;-78
2022/05/05 13:09:17;;;;;;;28.58;24.45;;;21.20;96.60;;;;;;4992376;28;20126;-80
2022/05/05 13:11:44;;;;;;;31.27;24.90;;;21.10;96.10;;;;;;4994701;28;20109;-77
2022/05/05 13:14:10;;;;;;;26.55;22.75;;;21.20;96.10;;;;;;4991457;28;20102;-78
2022/05/05 13:16:36;;;;;;;30.98;24.88;;;21.30;95.60;;;;;;4979455;28;20143;-78
2022/05/05 13:19:02;;;;;;;29.23;25.25;;;21.40;96.40;;;;;;4976337;28;20035;-78
2022/05/05 13:21:29;;;;;;;30.02;25.55;;;21.50;96.40;;;;;;4975290;28;20035;-78
2022/05/05 13:23:56;;;;;;;29.27;25.63;;;21.60;95.50;;;;;;4994447;28;20038;-79
2022/05/05 13:26:22;;;;;;;33.38;25.83;;;21.30;96.80;;;;;;4998973;28;20050;-77
2022/05/05 13:28:48;;;;;;;32.33;27.77;;;21.00;96.70;;;;;;4984276;28;20031;-78
2022/05/05 13:31:13;;;;;;;32.60;26.45;;;20.80;96.90;;;;;;4974783;28;20474;-77
2022/05/05 13:33:39;;;;;;;29.52;26.30;;;20.90;97.30;;;;;;4977001;28;20400;-76
2022/05/05 13:36:05;;;;;;;30.42;25.75;;;21.30;98.70;;;;;;4978082;28;20047;-79
2022/05/05 13:38:31;;;;;;;30.70;24.75;;;22.10;96.80;;;;;;4978340;28;20086;-77
2022/05/05 13:40:56;;;;;;;31.98;25.13;;;22.70;95.60;;;;;;4981556;28;20078;-78
2022/05/05 13:43:22;;;;;;;35.25;27.90;;;22.90;94.30;;;;;;4977444;28;20038;-80
2022/05/05 13:45:51;;;;;;;30.67;27.02;;;22.30;95.80;;;;;;4996716;28;20396;-80
2022/05/05 13:48:18;;;;;;;31.05;25.40;;;21.50;95.90;;;;;;4990051;28;20047;-81
2022/05/05 13:50:44;;;;;;;33.72;27.08;;;21.60;96.50;;;;;;4997456;28;20101;-81
2022/05/05 13:53:10;;;;;;;35.38;26.33;;;21.60;96.60;;;;;;4998131;28;20031;-81
2022/05/05 13:55:36;;;;;;;34.78;28.63;;;21.30;97.90;;;;;;4999012;28;20039;-81
2022/05/05 13:58:03;;;;;;;31.77;27.48;;;20.60;98.00;;;;;;4994250;28;20047;-83
2022/05/05 14:00:30;;;;;;;33.38;27.85;;;19.70;99.60;;;;;;4987688;28;20508;-82
2022/05/05 14:02:56;;;;;;;38.20;28.65;;;19.70;99.90;;;;;;4995458;28;20042;-83
2022/05/05 14:05:22;;;;;;;33.78;26.70;;;19.50;99.90;;;;;;4978028;28;20071;-81
2022/05/05 14:13:16;;;;;;;33.35;27.48;;;19.90;99.90;;;;;;4999879;28;20075;-80
2022/05/05 14:15:42;;;;;;;31.58;26.02;;;19.60;99.90;;;;;;4993368;28;20047;-80
2022/05/05 14:18:08;;;;;;;33.25;26.85;;;19.90;99.90;;;;;;4995865;28;20122;-81
2022/05/05 14:20:34;;;;;;;34.95;26.05;;;20.60;99.90;;;;;;4983170;28;20086;-80
2022/05/05 14:22:59;;;;;;;33.50;26.17;;;21.40;98.40;;;;;;4981310;28;20042;-80
2022/05/05 14:25:26;;;;;;;29.88;24.23;;;20.90;97.60;;;;;;4994815;28;20485;-81
2022/05/05 14:27:52;;;;;;;30.85;25.92;;;20.70;99.30;;;;;;4992761;28;20038;-79
2022/05/05 14:30:18;;;;;;;34.15;26.58;;;20.40;99.40;;;;;;4990774;28;20034;-80
2022/05/05 14:32:43;;;;;;;30.65;24.90;;;19.50;99.90;;;;;;4991321;28;20039;-79
2022/05/05 14:35:12;;;;;;;34.15;25.58;;;19.40;99.90;;;;;;4991779;28;20049;-79
2022/05/05 14:37:38;;;;;;;26.27;19.90;;;18.70;99.90;;;;;;4993187;28;20051;-79
2022/05/05 14:40:04;;;;;;;25.08;19.05;;;18.70;99.90;;;;;;4989416;28;20042;-78
2022/05/05 14:42:32;;;;;;;21.33;18.48;;;18.60;99.90;;;;;;4987711;28;20560;-79
2022/05/05 14:44:57;;;;;;;15.07;13.10;;;18.70;99.90;;;;;;4990704;28;20061;-79
2022/05/05 14:47:23;;;;;;;14.45;11.32;;;19.00;99.90;;;;;;4999790;28;20045;-78
2022/05/05 14:49:49;;;;;;;9.95;8.57;;;19.20;99.90;;;;;;5002632;28;20027;-79
2022/05/05 14:52:16;;;;;;;7.78;7.07;;;19.30;99.50;;;;;;5002467;28;20042;-79
2022/05/05 14:54:41;;;;;;;6.88;4.82;;;19.50;98.90;;;;;;5002369;28;20039;-79
2022/05/05 14:57:09;;;;;;;6.15;4.00;;;19.60;98.50;;;;;;4985375;28;20039;-85
2022/05/05 14:59:34;;;;;;;4.15;3.85;;;19.90;97.70;;;;;;5003579;28;20039;-81
2022/05/05 15:02:00;;;;;;;3.55;3.25;;;19.80;97.50;;;;;;4995683;28;20046;-80
2022/05/05 15:04:26;;;;;;;4.53;4.10;;;19.60;96.70;;;;;;4985605;28;20102;-81
2022/05/05 15:06:51;;;;;;;5.10;4.10;;;19.50;98.60;;;;;;5002618;28;20039;-82
2022/05/05 15:09:18;;;;;;;4.32;3.92;;;19.40;99.00;;;;;;5001664;28;20031;-81
2022/05/05 15:11:44;;;;;;;4.40;4.00;;;19.50;99.90;;;;;;5005148;28;20483;-81
2022/05/05 15:14:09;;;;;;;4.50;4.10;;;19.70;97.90;;;;;;5008839;28;20110;-81
2022/05/05 15:16:35;;;;;;;4.68;4.28;;;19.90;97.10;;;;;;5015941;28;20038;-81
2022/05/05 15:19:01;;;;;;;4.78;4.28;;;19.80;97.80;;;;;;5017140;28;20050;-80
2022/05/05 15:21:27;;;;;;;5.10;4.47;;;19.80;98.10;;;;;;5014877;28;20038;-81
2022/05/05 15:23:54;;;;;;;4.90;4.30;;;19.90;97.70;;;;;;5010857;28;20485;-82
2022/05/05 15:26:23;;;;;;;5.13;4.10;;;20.00;96.90;;;;;;5003625;28;20119;-81
2022/05/05 15:28:53;;;;;;;4.65;4.10;;;20.30;95.80;;;;;;5003478;28;20456;-81
2022/05/05 15:31:20;;;;;;;4.90;4.40;;;20.40;96.30;;;;;;5005030;28;20030;-81
2022/05/05 15:33:46;;;;;;;3.67;3.13;;;20.40;96.60;;;;;;5002842;28;20101;-81
2022/05/05 15:36:12;;;;;;;4.22;3.75;;;20.20;94.50;;;;;;5001959;28;20444;-80
2022/05/05 15:38:38;;;;;;;4.40;4.00;;;20.10;95.50;;;;;;5001280;28;20038;-80
2022/05/05 15:41:03;;;;;;;4.55;4.13;;;20.50;95.10;;;;;;5002687;28;20484;-81
2022/05/05 15:43:29;;;;;;;4.80;3.85;;;20.80;93.50;;;;;;5003032;28;20524;-81
2022/05/05 15:45:55;;;;;;;7.22;4.70;;;20.70;94.30;;;;;;5002453;28;20471;-81
2022/05/05 15:48:21;;;;;;;5.07;4.47;;;20.60;95.60;;;;;;5001430;28;20120;-82
2022/05/05 15:50:47;;;;;;;6.20;4.85;;;21.00;93.20;;;;;;5001299;28;20070;-81
2022/05/05 15:53:13;;;;;;;7.07;4.38;;;20.80;94.70;;;;;;5003155;28;20144;-82
2022/05/05 15:55:38;;;;;;;6.85;5.22;;;20.70;94.10;;;;;;5004096;28;20033;-81
2022/05/05 15:58:04;;;;;;;5.78;5.10;;;20.40;95.70;;;;;;5004577;28;20769;-81
2022/05/05 16:00:30;;;;;;;8.15;6.25;;;20.30;96.60;;;;;;5013631;28;20027;-81
2022/05/05 16:02:59;;;;;;;7.32;6.63;;;19.90;96.00;;;;;;5002872;28;20420;-81
2022/05/05 16:05:26;;;;;;;7.97;7.25;;;19.90;96.30;;;;;;5001619;28;20034;-81
2022/05/05 16:07:53;;;;;;;8.73;7.93;;;20.10;96.80;;;;;;4998760;28;20099;-81
2022/05/05 16:10:21;;;;;;;9.30;8.40;;;19.90;97.80;;;;;;5000308;28;20038;-80
2022/05/05 16:12:47;;;;;;;10.18;8.18;;;19.80;97.40;;;;;;4999340;28;20046;-81
2022/05/05 16:15:13;;;;;;;8.75;7.85;;;19.50;98.00;;;;;;4999268;28;20030;-81
2022/05/05 16:17:40;;;;;;;10.60;8.05;;;19.60;99.20;;;;;;4998862;28;20125;-81
2022/05/05 16:20:08;;;;;;;11.30;9.13;;;19.50;98.60;;;;;;4999415;28;20039;-80
2022/05/05 16:22:34;;;;;;;10.43;9.07;;;19.30;99.60;;;;;;4998254;28;20050;-82
2022/05/05 16:30:29;;;;;;;10.90;9.10;;;18.50;99.90;;;;;;4998654;28;20035;-81
2022/05/05 16:32:54;;;;;;;11.93;9.52;;;18.40;99.90;;;;;;4998395;28;20042;-81
2022/05/05 16:35:20;;;;;;;11.93;9.93;;;18.40;99.90;;;;;;4997308;28;20030;-81
2022/05/05 16:37:48;;;;;;;12.13;10.85;;;18.40;99.90;;;;;;4995804;28;20110;-82
2022/05/05 16:40:18;;;;;;;11.90;10.50;;;18.10;99.90;;;;;;4996483;28;20883;-81
2022/05/05 16:42:44;;;;;;;14.77;11.05;;;18.00;99.90;;;;;;4996788;28;20039;-81
2022/05/05 16:45:11;;;;;;;11.68;9.63;;;18.00;99.90;;;;;;4999587;28;20037;-81
2022/05/05 16:47:41;;;;;;;11.38;9.75;;;18.20;99.90;;;;;;4998168;28;20034;-81
2022/05/05 16:50:08;;;;;;;12.05;10.18;;;18.10;99.90;;;;;;4997511;28;20026;-81
2022/05/05 16:52:34;;;;;;;13.13;10.35;;;17.90;99.90;;;;;;4996847;28;20059;-81
2022/05/05 16:55:01;;;;;;;13.05;10.73;;;17.70;99.90;;;;;;4998278;28;20899;-81
2022/05/05 16:57:27;;;;;;;13.65;10.68;;;17.60;99.90;;;;;;4997293;28;20062;-81
2022/05/05 16:59:53;;;;;;;12.80;10.80;;;17.40;99.90;;;;;;4996595;28;20097;-81
2022/05/05 17:02:18;;;;;;;13.45;11.65;;;17.20;99.90;;;;;;4996218;28;20055;-81
2022/05/05 17:04:44;;;;;;;14.07;12.05;;;17.20;99.90;;;;;;4996793;28;20037;-81
2022/05/05 17:07:10;;;;;;;16.88;12.65;;;17.00;99.90;;;;;;4995945;28;20046;-82
2022/05/05 17:09:35;;;;;;;18.17;13.10;;;16.90;99.90;;;;;;4996842;28;20464;-81
2022/05/05 17:12:01;;;;;;;18.25;12.57;;;16.90;99.90;;;;;;4998367;28;20035;-81
2022/05/05 17:14:27;;;;;;;14.40;12.40;;;16.90;99.90;;;;;;4999281;28;20484;-81
2022/05/05 17:16:54;;;;;;;15.25;11.45;;;16.90;99.90;;;;;;4999259;28;20078;-81
2022/05/05 17:19:19;;;;;;;16.02;11.88;;;17.00;99.90;;;;;;4999206;28;20031;-81
2022/05/05 17:21:45;;;;;;;12.27;10.70;;;16.90;99.90;;;;;;4997176;28;20038;-81
2022/05/05 17:24:10;;;;;;;13.57;11.07;;;16.80;99.90;;;;;;4997670;28;20540;-80
2022/05/05 17:26:36;;;;;;;13.85;10.48;;;16.90;99.90;;;;;;4996884;28;20118;-81